sensor_id;sensor_type;location;lat;lon;timestamp;temperature;humidity
3136;DHT22;1578;47.658;9.922;2023-08-17T00:01:46;18.10;75.40
3136;DHT22;1578;47.658;9.922;2023-08-17T00:04:12;18.20;77.50
3136;DHT22;1578;47.658;9.922;2023-08-17T00:06:37;18.10;77.30
3136;DHT22;1578;47.658;9.922;2023-08-17T00:09:03;18.10;78.60
3136;DHT22;1578;47.658;9.922;2023-08-17T00:11:29;18.10;77.80
3136;DHT22;1578;47.658;9.922;2023-08-17T00:13:55;18.00;78.30
3136;DHT22;1578;47.658;9.922;2023-08-17T00:16:20;18.00;79.10
3136;DHT22;1578;47.658;9.922;2023-08-17T00:18:47;18.00;78.30
3136;DHT22;1578;47.658;9.922;2023-08-17T00:21:13;18.00;78.70
3136;DHT22;1578;47.658;9.922;2023-08-17T00:23:39;18.00;78.70
3136;DHT22;1578;47.658;9.922;2023-08-17T00:26:05;17.90;80.00
3136;DHT22;1578;47.658;9.922;2023-08-17T00:28:30;17.90;78.30
3136;DHT22;1578;47.658;9.922;2023-08-17T00:30:56;17.90;78.40
3136;DHT22;1578;47.658;9.922;2023-08-17T00:33:21;17.80;76.30
3136;DHT22;1578;47.658;9.922;2023-08-17T00:35:47;17.70;77.80
3136;DHT22;1578;47.658;9.922;2023-08-17T00:38:13;17.70;79.30
3136;DHT22;1578;47.658;9.922;2023-08-17T00:40:39;17.70;79.90
3136;DHT22;1578;47.658;9.922;2023-08-17T00:43:05;17.60;78.90
3136;DHT22;1578;47.658;9.922;2023-08-17T00:45:31;17.50;80.60
3136;DHT22;1578;47.658;9.922;2023-08-17T00:47:57;17.50;80.00
3136;DHT22;1578;47.658;9.922;2023-08-17T00:50:27;17.60;80.50
3136;DHT22;1578;47.658;9.922;2023-08-17T00:52:55;17.60;79.40
3136;DHT22;1578;47.658;9.922;2023-08-17T00:55:21;17.50;78.80
3136;DHT22;1578;47.658;9.922;2023-08-17T00:57:47;17.60;78.20
3136;DHT22;1578;47.658;9.922;2023-08-17T01:00:13;17.60;77.60
3136;DHT22;1578;47.658;9.922;2023-08-17T01:02:42;17.40;76.70
3136;DHT22;1578;47.658;9.922;2023-08-17T01:05:08;17.30;80.40
3136;DHT22;1578;47.658;9.922;2023-08-17T01:07:34;17.40;81.30
3136;DHT22;1578;47.658;9.922;2023-08-17T01:10:02;17.40;79.40
3136;DHT22;1578;47.658;9.922;2023-08-17T01:12:31;17.30;79.60
3136;DHT22;1578;47.658;9.922;2023-08-17T01:15:02;17.20;81.10
3136;DHT22;1578;47.658;9.922;2023-08-17T01:17:35;17.30;80.40
3136;DHT22;1578;47.658;9.922;2023-08-17T01:20:02;17.30;79.20
3136;DHT22;1578;47.658;9.922;2023-08-17T01:22:32;17.20;79.80
3136;DHT22;1578;47.658;9.922;2023-08-17T01:25:01;17.20;81.00
3136;DHT22;1578;47.658;9.922;2023-08-17T01:27:39;17.20;80.40
3136;DHT22;1578;47.658;9.922;2023-08-17T01:30:05;17.30;81.20
3136;DHT22;1578;47.658;9.922;2023-08-17T01:32:53;17.20;81.10
3136;DHT22;1578;47.658;9.922;2023-08-17T01:38:14;17.00;83.20
3136;DHT22;1578;47.658;9.922;2023-08-17T01:40:41;17.00;86.20
3136;DHT22;1578;47.658;9.922;2023-08-17T01:43:09;17.00;89.30
3136;DHT22;1578;47.658;9.922;2023-08-17T01:45:35;17.00;89.40
3136;DHT22;1578;47.658;9.922;2023-08-17T01:48:01;16.90;89.00
3136;DHT22;1578;47.658;9.922;2023-08-17T01:50:26;16.90;89.10
3136;DHT22;1578;47.658;9.922;2023-08-17T01:52:52;16.90;89.70
3136;DHT22;1578;47.658;9.922;2023-08-17T01:55:20;16.90;90.40
3136;DHT22;1578;47.658;9.922;2023-08-17T01:57:46;16.80;90.00
3136;DHT22;1578;47.658;9.922;2023-08-17T02:00:12;16.80;90.20
3136;DHT22;1578;47.658;9.922;2023-08-17T02:02:38;16.80;89.60
3136;DHT22;1578;47.658;9.922;2023-08-17T02:05:03;16.80;89.20
3136;DHT22;1578;47.658;9.922;2023-08-17T02:07:29;16.90;87.30
3136;DHT22;1578;47.658;9.922;2023-08-17T02:09:55;16.90;85.90
3136;DHT22;1578;47.658;9.922;2023-08-17T02:12:20;16.90;84.10
3136;DHT22;1578;47.658;9.922;2023-08-17T02:14:46;16.80;83.80
3136;DHT22;1578;47.658;9.922;2023-08-17T02:17:12;16.80;83.30
3136;DHT22;1578;47.658;9.922;2023-08-17T02:19:37;16.90;83.10
3136;DHT22;1578;47.658;9.922;2023-08-17T02:22:04;16.70;80.60
3136;DHT22;1578;47.658;9.922;2023-08-17T02:24:30;16.60;83.10
3136;DHT22;1578;47.658;9.922;2023-08-17T02:26:55;16.60;83.90
3136;DHT22;1578;47.658;9.922;2023-08-17T02:29:21;16.40;84.80
3136;DHT22;1578;47.658;9.922;2023-08-17T02:31:46;16.60;86.90
3136;DHT22;1578;47.658;9.922;2023-08-17T02:34:12;16.60;85.10
3136;DHT22;1578;47.658;9.922;2023-08-17T02:36:38;16.40;84.80
3136;DHT22;1578;47.658;9.922;2023-08-17T02:39:03;16.30;86.50
3136;DHT22;1578;47.658;9.922;2023-08-17T02:41:29;16.20;87.80
3136;DHT22;1578;47.658;9.922;2023-08-17T02:43:57;16.30;87.70
3136;DHT22;1578;47.658;9.922;2023-08-17T02:46:27;16.30;86.80
3136;DHT22;1578;47.658;9.922;2023-08-17T02:48:55;16.20;86.50
3136;DHT22;1578;47.658;9.922;2023-08-17T02:51:20;16.10;90.10
3136;DHT22;1578;47.658;9.922;2023-08-17T02:53:46;16.20;90.40
3136;DHT22;1578;47.658;9.922;2023-08-17T02:56:12;16.20;88.70
3136;DHT22;1578;47.658;9.922;2023-08-17T02:58:41;16.20;87.80
3136;DHT22;1578;47.658;9.922;2023-08-17T03:01:09;16.10;88.50
3136;DHT22;1578;47.658;9.922;2023-08-17T03:03:34;16.10;87.10
3136;DHT22;1578;47.658;9.922;2023-08-17T03:06:01;16.20;87.50
3136;DHT22;1578;47.658;9.922;2023-08-17T03:08:27;16.10;87.20
3136;DHT22;1578;47.658;9.922;2023-08-17T03:10:53;16.10;86.50
3136;DHT22;1578;47.658;9.922;2023-08-17T03:13:18;15.90;88.20
3136;DHT22;1578;47.658;9.922;2023-08-17T03:15:44;16.00;88.90
3136;DHT22;1578;47.658;9.922;2023-08-17T03:18:09;16.00;87.60
3136;DHT22;1578;47.658;9.922;2023-08-17T03:20:35;16.10;86.80
3136;DHT22;1578;47.658;9.922;2023-08-17T03:23:01;16.00;85.90
3136;DHT22;1578;47.658;9.922;2023-08-17T03:25:27;15.80;87.20
3136;DHT22;1578;47.658;9.922;2023-08-17T03:27:52;15.80;87.90
3136;DHT22;1578;47.658;9.922;2023-08-17T03:30:18;15.80;88.40
3136;DHT22;1578;47.658;9.922;2023-08-17T03:32:44;15.80;87.10
3136;DHT22;1578;47.658;9.922;2023-08-17T03:35:09;15.80;88.10
3136;DHT22;1578;47.658;9.922;2023-08-17T03:37:35;15.70;88.00
3136;DHT22;1578;47.658;9.922;2023-08-17T03:40:00;15.70;90.40
3136;DHT22;1578;47.658;9.922;2023-08-17T03:42:27;15.80;90.00
3136;DHT22;1578;47.658;9.922;2023-08-17T03:44:53;15.90;88.50
3136;DHT22;1578;47.658;9.922;2023-08-17T03:47:20;15.90;86.70
3136;DHT22;1578;47.658;9.922;2023-08-17T03:49:46;15.80;84.80
3136;DHT22;1578;47.658;9.922;2023-08-17T03:52:12;15.80;85.70
3136;DHT22;1578;47.658;9.922;2023-08-17T03:54:38;15.70;85.90
3136;DHT22;1578;47.658;9.922;2023-08-17T03:57:03;15.60;88.40
3136;DHT22;1578;47.658;9.922;2023-08-17T03:59:29;15.50;87.40
3136;DHT22;1578;47.658;9.922;2023-08-17T04:01:54;15.50;90.20
3136;DHT22;1578;47.658;9.922;2023-08-17T04:04:20;15.60;90.20
3136;DHT22;1578;47.658;9.922;2023-08-17T04:06:46;15.50;90.00
3136;DHT22;1578;47.658;9.922;2023-08-17T04:09:11;15.40;89.80
3136;DHT22;1578;47.658;9.922;2023-08-17T04:11:37;15.30;89.50
3136;DHT22;1578;47.658;9.922;2023-08-17T04:14:04;15.20;91.10
3136;DHT22;1578;47.658;9.922;2023-08-17T04:16:30;15.20;91.60
3136;DHT22;1578;47.658;9.922;2023-08-17T04:18:56;15.10;91.70
3136;DHT22;1578;47.658;9.922;2023-08-17T04:21:21;15.10;92.70
3136;DHT22;1578;47.658;9.922;2023-08-17T04:23:47;15.20;92.40
3136;DHT22;1578;47.658;9.922;2023-08-17T04:26:12;15.20;92.20
3136;DHT22;1578;47.658;9.922;2023-08-17T04:28:38;15.20;92.40
3136;DHT22;1578;47.658;9.922;2023-08-17T04:31:05;15.20;93.30
3136;DHT22;1578;47.658;9.922;2023-08-17T04:33:31;15.30;93.30
3136;DHT22;1578;47.658;9.922;2023-08-17T04:35:56;15.40;93.10
3136;DHT22;1578;47.658;9.922;2023-08-17T04:38:25;15.40;92.60
3136;DHT22;1578;47.658;9.922;2023-08-17T04:40:51;15.40;92.90
3136;DHT22;1578;47.658;9.922;2023-08-17T04:43:17;15.40;93.60
3136;DHT22;1578;47.658;9.922;2023-08-17T04:45:42;15.50;93.80
3136;DHT22;1578;47.658;9.922;2023-08-17T04:48:09;15.50;93.80
3136;DHT22;1578;47.658;9.922;2023-08-17T04:50:35;15.50;94.30
3136;DHT22;1578;47.658;9.922;2023-08-17T04:53:01;15.70;94.70
3136;DHT22;1578;47.658;9.922;2023-08-17T04:55:28;15.70;94.30
3136;DHT22;1578;47.658;9.922;2023-08-17T04:57:54;15.80;94.80
3136;DHT22;1578;47.658;9.922;2023-08-17T05:00:19;15.90;94.70
3136;DHT22;1578;47.658;9.922;2023-08-17T05:02:50;15.90;94.50
3136;DHT22;1578;47.658;9.922;2023-08-17T05:05:17;16.00;94.20
3136;DHT22;1578;47.658;9.922;2023-08-17T05:07:42;16.00;94.00
3136;DHT22;1578;47.658;9.922;2023-08-17T05:10:08;16.00;94.40
3136;DHT22;1578;47.658;9.922;2023-08-17T05:12:34;16.10;94.60
3136;DHT22;1578;47.658;9.922;2023-08-17T05:15:00;16.20;94.30
3136;DHT22;1578;47.658;9.922;2023-08-17T05:17:25;16.30;94.60
3136;DHT22;1578;47.658;9.922;2023-08-17T05:19:51;16.30;94.30
3136;DHT22;1578;47.658;9.922;2023-08-17T05:22:17;16.40;93.60
3136;DHT22;1578;47.658;9.922;2023-08-17T05:24:42;16.50;93.60
3136;DHT22;1578;47.658;9.922;2023-08-17T05:27:08;16.60;94.10
3136;DHT22;1578;47.658;9.922;2023-08-17T05:29:34;16.70;93.80
3136;DHT22;1578;47.658;9.922;2023-08-17T05:31:59;17.00;93.80
3136;DHT22;1578;47.658;9.922;2023-08-17T05:34:25;17.40;91.70
3136;DHT22;1578;47.658;9.922;2023-08-17T05:36:51;17.80;88.40
3136;DHT22;1578;47.658;9.922;2023-08-17T05:39:17;18.10;86.40
3136;DHT22;1578;47.658;9.922;2023-08-17T05:41:42;18.50;85.80
3136;DHT22;1578;47.658;9.922;2023-08-17T05:44:08;18.80;79.50
3136;DHT22;1578;47.658;9.922;2023-08-17T05:46:40;19.20;75.20
3136;DHT22;1578;47.658;9.922;2023-08-17T05:49:06;19.50;72.00
3136;DHT22;1578;47.658;9.922;2023-08-17T05:51:31;19.70;69.50
3136;DHT22;1578;47.658;9.922;2023-08-17T05:53:57;20.00;66.90
3136;DHT22;1578;47.658;9.922;2023-08-17T05:56:23;20.20;63.50
3136;DHT22;1578;47.658;9.922;2023-08-17T05:58:51;20.30;63.10
3136;DHT22;1578;47.658;9.922;2023-08-17T06:01:17;20.40;61.40
3136;DHT22;1578;47.658;9.922;2023-08-17T06:03:43;20.40;63.40
3136;DHT22;1578;47.658;9.922;2023-08-17T06:06:09;20.40;63.30
3136;DHT22;1578;47.658;9.922;2023-08-17T06:08:35;20.60;63.30
3136;DHT22;1578;47.658;9.922;2023-08-17T06:11:01;20.70;62.40
3136;DHT22;1578;47.658;9.922;2023-08-17T06:13:27;20.90;58.70
3136;DHT22;1578;47.658;9.922;2023-08-17T06:15:52;20.90;59.50
3136;DHT22;1578;47.658;9.922;2023-08-17T06:18:18;21.00;59.30
3136;DHT22;1578;47.658;9.922;2023-08-17T06:20:46;21.00;62.00
3136;DHT22;1578;47.658;9.922;2023-08-17T06:23:12;21.20;59.90
3136;DHT22;1578;47.658;9.922;2023-08-17T06:25:42;21.30;55.20
3136;DHT22;1578;47.658;9.922;2023-08-17T06:28:07;21.40;57.50
3136;DHT22;1578;47.658;9.922;2023-08-17T06:30:33;21.50;57.30
3136;DHT22;1578;47.658;9.922;2023-08-17T06:32:59;21.70;54.30
3136;DHT22;1578;47.658;9.922;2023-08-17T06:35:28;21.80;54.70
3136;DHT22;1578;47.658;9.922;2023-08-17T06:37:54;22.00;54.70
3136;DHT22;1578;47.658;9.922;2023-08-17T06:40:24;22.10;52.70
3136;DHT22;1578;47.658;9.922;2023-08-17T06:42:49;22.40;51.00
3136;DHT22;1578;47.658;9.922;2023-08-17T06:45:15;22.50;44.30
3136;DHT22;1578;47.658;9.922;2023-08-17T06:47:45;22.60;46.80
3136;DHT22;1578;47.658;9.922;2023-08-17T06:50:13;22.70;45.60
3136;DHT22;1578;47.658;9.922;2023-08-17T06:52:39;22.90;45.70
3136;DHT22;1578;47.658;9.922;2023-08-17T06:55:05;23.20;45.30
3136;DHT22;1578;47.658;9.922;2023-08-17T06:57:31;23.50;42.20
3136;DHT22;1578;47.658;9.922;2023-08-17T06:59:57;23.70;39.40
3136;DHT22;1578;47.658;9.922;2023-08-17T07:02:22;23.90;36.60
3136;DHT22;1578;47.658;9.922;2023-08-17T07:04:48;23.90;34.70
3136;DHT22;1578;47.658;9.922;2023-08-17T07:07:14;24.10;35.20
3136;DHT22;1578;47.658;9.922;2023-08-17T07:09:40;24.20;34.20
3136;DHT22;1578;47.658;9.922;2023-08-17T07:12:06;24.30;32.60
3136;DHT22;1578;47.658;9.922;2023-08-17T07:14:32;24.40;31.10
3136;DHT22;1578;47.658;9.922;2023-08-17T07:16:59;24.50;29.80
3136;DHT22;1578;47.658;9.922;2023-08-17T07:19:25;24.60;33.00
3136;DHT22;1578;47.658;9.922;2023-08-17T07:21:50;24.90;28.90
3136;DHT22;1578;47.658;9.922;2023-08-17T07:24:17;25.10;28.70
3136;DHT22;1578;47.658;9.922;2023-08-17T07:26:43;25.40;27.90
3136;DHT22;1578;47.658;9.922;2023-08-17T07:29:09;25.70;23.90
3136;DHT22;1578;47.658;9.922;2023-08-17T07:31:37;25.80;22.90
3136;DHT22;1578;47.658;9.922;2023-08-17T07:34:07;26.00;22.30
3136;DHT22;1578;47.658;9.922;2023-08-17T07:36:33;26.10;17.20
3136;DHT22;1578;47.658;9.922;2023-08-17T07:39:00;26.30;20.90
3136;DHT22;1578;47.658;9.922;2023-08-17T07:41:27;26.40;21.50
3136;DHT22;1578;47.658;9.922;2023-08-17T07:43:52;26.40;18.50
3136;DHT22;1578;47.658;9.922;2023-08-17T07:46:18;26.60;21.10
3136;DHT22;1578;47.658;9.922;2023-08-17T07:48:44;26.60;17.50
3136;DHT22;1578;47.658;9.922;2023-08-17T07:51:09;26.60;13.90
3136;DHT22;1578;47.658;9.922;2023-08-17T07:53:35;26.80;13.70
3136;DHT22;1578;47.658;9.922;2023-08-17T07:56:01;27.10;12.50
3136;DHT22;1578;47.658;9.922;2023-08-17T07:58:26;27.10;7.50
3136;DHT22;1578;47.658;9.922;2023-08-17T08:00:52;27.10;5.30
3136;DHT22;1578;47.658;9.922;2023-08-17T08:03:18;26.70;7.20
3136;DHT22;1578;47.658;9.922;2023-08-17T08:05:43;26.20;5.60
3136;DHT22;1578;47.658;9.922;2023-08-17T08:08:09;26.00;8.70
3136;DHT22;1578;47.658;9.922;2023-08-17T08:10:35;26.00;10.40
3136;DHT22;1578;47.658;9.922;2023-08-17T08:13:01;25.90;13.50
3136;DHT22;1578;47.658;9.922;2023-08-17T08:15:26;26.10;10.50
3136;DHT22;1578;47.658;9.922;2023-08-17T08:17:52;26.10;10.50
3136;DHT22;1578;47.658;9.922;2023-08-17T08:20:18;26.20;14.70
3136;DHT22;1578;47.658;9.922;2023-08-17T08:22:43;26.30;10.80
3136;DHT22;1578;47.658;9.922;2023-08-17T08:25:10;26.30;12.80
3136;DHT22;1578;47.658;9.922;2023-08-17T08:27:35;25.90;10.60
3136;DHT22;1578;47.658;9.922;2023-08-17T08:30:01;25.80;15.70
3136;DHT22;1578;47.658;9.922;2023-08-17T08:32:27;26.00;12.50
3136;DHT22;1578;47.658;9.922;2023-08-17T08:34:52;26.00;10.90
3136;DHT22;1578;47.658;9.922;2023-08-17T08:37:18;26.00;13.50
3136;DHT22;1578;47.658;9.922;2023-08-17T08:39:51;25.90;11.40
3136;DHT22;1578;47.658;9.922;2023-08-17T08:42:21;25.90;12.90
3136;DHT22;1578;47.658;9.922;2023-08-17T08:44:47;25.80;13.00
3136;DHT22;1578;47.658;9.922;2023-08-17T08:47:13;25.90;11.20
3136;DHT22;1578;47.658;9.922;2023-08-17T08:49:40;26.00;10.40
3136;DHT22;1578;47.658;9.922;2023-08-17T08:52:13;26.10;11.40
3136;DHT22;1578;47.658;9.922;2023-08-17T08:54:41;26.20;10.50
3136;DHT22;1578;47.658;9.922;2023-08-17T08:57:11;26.30;11.20
3136;DHT22;1578;47.658;9.922;2023-08-17T08:59:38;26.30;9.30
3136;DHT22;1578;47.658;9.922;2023-08-17T09:02:12;26.40;9.70
3136;DHT22;1578;47.658;9.922;2023-08-17T09:04:39;26.20;6.80
3136;DHT22;1578;47.658;9.922;2023-08-17T09:07:06;26.20;9.20
3136;DHT22;1578;47.658;9.922;2023-08-17T09:09:32;26.20;10.90
3136;DHT22;1578;47.658;9.922;2023-08-17T09:11:58;26.30;7.70
3136;DHT22;1578;47.658;9.922;2023-08-17T09:14:24;26.30;10.60
3136;DHT22;1578;47.658;9.922;2023-08-17T09:16:49;26.30;7.00
3136;DHT22;1578;47.658;9.922;2023-08-17T09:19:15;26.10;11.40
3136;DHT22;1578;47.658;9.922;2023-08-17T09:21:41;26.10;8.30
3136;DHT22;1578;47.658;9.922;2023-08-17T09:24:07;26.00;9.00
3136;DHT22;1578;47.658;9.922;2023-08-17T09:26:33;26.10;7.70
3136;DHT22;1578;47.658;9.922;2023-08-17T09:28:59;25.90;10.40
3136;DHT22;1578;47.658;9.922;2023-08-17T09:31:25;26.00;9.70
3136;DHT22;1578;47.658;9.922;2023-08-17T09:33:51;26.20;8.90
3136;DHT22;1578;47.658;9.922;2023-08-17T09:36:21;26.30;8.80
3136;DHT22;1578;47.658;9.922;2023-08-17T09:38:51;26.40;8.90
3136;DHT22;1578;47.658;9.922;2023-08-17T09:41:18;26.40;6.90
3136;DHT22;1578;47.658;9.922;2023-08-17T09:43:48;26.40;8.50
3136;DHT22;1578;47.658;9.922;2023-08-17T09:46:14;26.60;6.80
3136;DHT22;1578;47.658;9.922;2023-08-17T09:48:40;26.70;7.80
3136;DHT22;1578;47.658;9.922;2023-08-17T09:51:06;26.80;8.00
3136;DHT22;1578;47.658;9.922;2023-08-17T09:53:35;27.00;6.70
3136;DHT22;1578;47.658;9.922;2023-08-17T09:56:05;27.10;7.40
3136;DHT22;1578;47.658;9.922;2023-08-17T09:58:33;27.30;7.40
3136;DHT22;1578;47.658;9.922;2023-08-17T10:01:03;27.10;5.30
3136;DHT22;1578;47.658;9.922;2023-08-17T10:03:32;27.30;8.70
3136;DHT22;1578;47.658;9.922;2023-08-17T10:06:05;27.50;7.20
3136;DHT22;1578;47.658;9.922;2023-08-17T10:08:41;27.50;5.80
3136;DHT22;1578;47.658;9.922;2023-08-17T10:11:08;27.30;4.10
3136;DHT22;1578;47.658;9.922;2023-08-17T10:13:40;27.30;6.80
3136;DHT22;1578;47.658;9.922;2023-08-17T10:16:27;27.20;6.40
3136;DHT22;1578;47.658;9.922;2023-08-17T10:21:39;27.60;5.00
3136;DHT22;1578;47.658;9.922;2023-08-17T10:24:08;27.80;3.70
3136;DHT22;1578;47.658;9.922;2023-08-17T10:26:34;27.80;2.60
3136;DHT22;1578;47.658;9.922;2023-08-17T10:29:02;27.90;8.10
3136;DHT22;1578;47.658;9.922;2023-08-17T10:31:29;28.00;4.10
3136;DHT22;1578;47.658;9.922;2023-08-17T10:33:56;28.10;4.90
3136;DHT22;1578;47.658;9.922;2023-08-17T10:36:23;28.40;4.20
3136;DHT22;1578;47.658;9.922;2023-08-17T10:39:21;28.40;3.30
3136;DHT22;1578;47.658;9.922;2023-08-17T10:41:49;28.50;2.50
3136;DHT22;1578;47.658;9.922;2023-08-17T10:44:15;28.60;3.00
3136;DHT22;1578;47.658;9.922;2023-08-17T10:46:41;28.70;4.10
3136;DHT22;1578;47.658;9.922;2023-08-17T10:49:24;28.80;1.10
3136;DHT22;1578;47.658;9.922;2023-08-17T10:52:42;28.50;4.50
3136;DHT22;1578;47.658;9.922;2023-08-17T10:54:49;28.40;5.50
3136;DHT22;1578;47.658;9.922;2023-08-17T10:57:38;28.50;3.00
3136;DHT22;1578;47.658;9.922;2023-08-17T11:00:17;28.40;8.50
3136;DHT22;1578;47.658;9.922;2023-08-17T11:02:59;28.40;7.00
3136;DHT22;1578;47.658;9.922;2023-08-17T11:08:19;28.00;6.90
3136;DHT22;1578;47.658;9.922;2023-08-17T11:13:53;28.60;7.00
3136;DHT22;1578;47.658;9.922;2023-08-17T11:16:19;28.90;4.30
3136;DHT22;1578;47.658;9.922;2023-08-17T11:18:48;28.90;4.70
3136;DHT22;1578;47.658;9.922;2023-08-17T11:21:15;29.20;3.40
3136;DHT22;1578;47.658;9.922;2023-08-17T11:23:41;29.50;2.40
3136;DHT22;1578;47.658;9.922;2023-08-17T11:26:07;29.60;2.00
3136;DHT22;1578;47.658;9.922;2023-08-17T11:28:34;29.60;1.00
3136;DHT22;1578;47.658;9.922;2023-08-17T11:31:05;29.80;2.10
3136;DHT22;1578;47.658;9.922;2023-08-17T11:33:32;28.80;5.50
3136;DHT22;1578;47.658;9.922;2023-08-17T11:36:00;28.80;5.90
3136;DHT22;1578;47.658;9.922;2023-08-17T11:38:26;29.00;2.80
3136;DHT22;1578;47.658;9.922;2023-08-17T11:40:55;29.00;3.30
3136;DHT22;1578;47.658;9.922;2023-08-17T11:43:21;28.70;4.40
3136;DHT22;1578;47.658;9.922;2023-08-17T11:45:48;29.00;1.30
3136;DHT22;1578;47.658;9.922;2023-08-17T11:48:14;29.10;1.00
3136;DHT22;1578;47.658;9.922;2023-08-17T11:50:42;29.50;1.00
3136;DHT22;1578;47.658;9.922;2023-08-17T11:53:08;29.80;1.00
3136;DHT22;1578;47.658;9.922;2023-08-17T11:55:34;29.50;2.40
3136;DHT22;1578;47.658;9.922;2023-08-17T11:58:02;29.10;1.00
3136;DHT22;1578;47.658;9.922;2023-08-17T12:00:28;29.20;5.30
3136;DHT22;1578;47.658;9.922;2023-08-17T12:02:59;29.30;2.10
3136;DHT22;1578;47.658;9.922;2023-08-17T12:05:25;29.40;1.30
3136;DHT22;1578;47.658;9.922;2023-08-17T12:07:53;29.70;1.50
3136;DHT22;1578;47.658;9.922;2023-08-17T12:10:19;29.50;1.20
3136;DHT22;1578;47.658;9.922;2023-08-17T12:12:47;29.40;1.00
3136;DHT22;1578;47.658;9.922;2023-08-17T12:15:13;29.60;1.00
3136;DHT22;1578;47.658;9.922;2023-08-17T12:17:49;29.80;3.70
3136;DHT22;1578;47.658;9.922;2023-08-17T12:20:20;29.90;4.80
3136;DHT22;1578;47.658;9.922;2023-08-17T12:22:46;29.60;4.30
3136;DHT22;1578;47.658;9.922;2023-08-17T12:25:12;29.50;3.20
3136;DHT22;1578;47.658;9.922;2023-08-17T12:27:39;29.60;5.90
3136;DHT22;1578;47.658;9.922;2023-08-17T12:30:11;29.60;4.40
3136;DHT22;1578;47.658;9.922;2023-08-17T12:32:37;29.50;4.90
3136;DHT22;1578;47.658;9.922;2023-08-17T12:35:03;29.60;7.00
3136;DHT22;1578;47.658;9.922;2023-08-17T12:37:29;29.30;7.80
3136;DHT22;1578;47.658;9.922;2023-08-17T12:39:55;28.70;11.90
3136;DHT22;1578;47.658;9.922;2023-08-17T12:42:21;28.60;13.20
3136;DHT22;1578;47.658;9.922;2023-08-17T12:44:46;28.70;13.90
3136;DHT22;1578;47.658;9.922;2023-08-17T12:47:14;29.00;14.20
3136;DHT22;1578;47.658;9.922;2023-08-17T12:49:46;28.90;13.00
3136;DHT22;1578;47.658;9.922;2023-08-17T12:52:11;29.10;12.80
3136;DHT22;1578;47.658;9.922;2023-08-17T12:54:37;28.80;12.70
3136;DHT22;1578;47.658;9.922;2023-08-17T12:57:03;28.60;14.10
3136;DHT22;1578;47.658;9.922;2023-08-17T12:59:29;28.20;11.60
3136;DHT22;1578;47.658;9.922;2023-08-17T13:01:55;28.20;12.20
3136;DHT22;1578;47.658;9.922;2023-08-17T13:04:20;28.00;12.10
3136;DHT22;1578;47.658;9.922;2023-08-17T13:06:46;28.00;14.90
3136;DHT22;1578;47.658;9.922;2023-08-17T13:09:13;27.90;13.40
3136;DHT22;1578;47.658;9.922;2023-08-17T13:11:40;27.80;13.90
3136;DHT22;1578;47.658;9.922;2023-08-17T13:14:05;27.60;13.90
3136;DHT22;1578;47.658;9.922;2023-08-17T13:16:31;27.60;12.40
3136;DHT22;1578;47.658;9.922;2023-08-17T13:18:56;27.50;10.40
3136;DHT22;1578;47.658;9.922;2023-08-17T13:21:22;27.50;12.60
3136;DHT22;1578;47.658;9.922;2023-08-17T13:23:48;27.60;12.80
3136;DHT22;1578;47.658;9.922;2023-08-17T13:26:13;27.70;12.10
3136;DHT22;1578;47.658;9.922;2023-08-17T13:28:39;27.60;14.10
3136;DHT22;1578;47.658;9.922;2023-08-17T13:31:04;27.80;11.40
3136;DHT22;1578;47.658;9.922;2023-08-17T13:33:30;27.90;9.70
3136;DHT22;1578;47.658;9.922;2023-08-17T13:35:56;28.00;13.00
3136;DHT22;1578;47.658;9.922;2023-08-17T13:38:22;27.80;12.50
3136;DHT22;1578;47.658;9.922;2023-08-17T13:40:47;28.00;10.70
3136;DHT22;1578;47.658;9.922;2023-08-17T13:43:13;28.10;10.40
3136;DHT22;1578;47.658;9.922;2023-08-17T13:45:39;28.00;11.50
3136;DHT22;1578;47.658;9.922;2023-08-17T13:48:06;27.90;12.30
3136;DHT22;1578;47.658;9.922;2023-08-17T13:50:33;28.00;10.80
3136;DHT22;1578;47.658;9.922;2023-08-17T13:52:59;27.70;12.50
3136;DHT22;1578;47.658;9.922;2023-08-17T13:55:26;27.80;11.90
3136;DHT22;1578;47.658;9.922;2023-08-17T13:57:53;28.10;11.50
3136;DHT22;1578;47.658;9.922;2023-08-17T14:00:21;28.20;9.80
3136;DHT22;1578;47.658;9.922;2023-08-17T14:02:46;28.00;11.00
3136;DHT22;1578;47.658;9.922;2023-08-17T14:05:12;28.10;11.80
3136;DHT22;1578;47.658;9.922;2023-08-17T14:07:38;28.10;9.90
3136;DHT22;1578;47.658;9.922;2023-08-17T14:10:04;28.00;11.60
3136;DHT22;1578;47.658;9.922;2023-08-17T14:12:30;28.00;10.90
3136;DHT22;1578;47.658;9.922;2023-08-17T14:14:55;28.10;11.90
3136;DHT22;1578;47.658;9.922;2023-08-17T14:17:21;28.10;11.50
3136;DHT22;1578;47.658;9.922;2023-08-17T14:19:47;28.40;11.60
3136;DHT22;1578;47.658;9.922;2023-08-17T14:22:12;28.60;8.90
3136;DHT22;1578;47.658;9.922;2023-08-17T14:24:38;28.80;9.70
3136;DHT22;1578;47.658;9.922;2023-08-17T14:27:04;28.60;11.30
3136;DHT22;1578;47.658;9.922;2023-08-17T14:29:29;28.70;10.80
3136;DHT22;1578;47.658;9.922;2023-08-17T14:31:55;28.80;10.30
3136;DHT22;1578;47.658;9.922;2023-08-17T14:34:21;29.00;10.80
3136;DHT22;1578;47.658;9.922;2023-08-17T14:36:47;29.20;10.70
3136;DHT22;1578;47.658;9.922;2023-08-17T14:39:13;29.40;7.90
3136;DHT22;1578;47.658;9.922;2023-08-17T14:41:38;29.30;9.00
3136;DHT22;1578;47.658;9.922;2023-08-17T14:44:04;29.10;9.40
3136;DHT22;1578;47.658;9.922;2023-08-17T14:46:30;29.10;9.00
3136;DHT22;1578;47.658;9.922;2023-08-17T14:48:56;29.00;8.30
3136;DHT22;1578;47.658;9.922;2023-08-17T14:51:23;29.00;7.70
3136;DHT22;1578;47.658;9.922;2023-08-17T14:53:49;29.00;8.20
3136;DHT22;1578;47.658;9.922;2023-08-17T14:56:15;29.20;9.40
3136;DHT22;1578;47.658;9.922;2023-08-17T14:58:40;29.20;8.40
3136;DHT22;1578;47.658;9.922;2023-08-17T15:01:06;29.10;9.60
3136;DHT22;1578;47.658;9.922;2023-08-17T15:03:32;29.20;7.20
3136;DHT22;1578;47.658;9.922;2023-08-17T15:05:57;29.20;9.40
3136;DHT22;1578;47.658;9.922;2023-08-17T15:08:23;28.90;9.10
3136;DHT22;1578;47.658;9.922;2023-08-17T15:10:49;29.00;11.10
3136;DHT22;1578;47.658;9.922;2023-08-17T15:13:15;29.20;7.20
3136;DHT22;1578;47.658;9.922;2023-08-17T15:15:41;29.20;7.30
3136;DHT22;1578;47.658;9.922;2023-08-17T15:18:08;29.20;6.70
3136;DHT22;1578;47.658;9.922;2023-08-17T15:20:34;29.00;9.50
3136;DHT22;1578;47.658;9.922;2023-08-17T15:23:00;29.10;7.20
3136;DHT22;1578;47.658;9.922;2023-08-17T15:25:25;28.60;7.90
3136;DHT22;1578;47.658;9.922;2023-08-17T15:27:51;28.60;9.30
3136;DHT22;1578;47.658;9.922;2023-08-17T15:30:17;28.70;7.60
3136;DHT22;1578;47.658;9.922;2023-08-17T15:32:43;28.50;9.30
3136;DHT22;1578;47.658;9.922;2023-08-17T15:35:10;28.20;10.40
3136;DHT22;1578;47.658;9.922;2023-08-17T15:37:42;27.80;9.70
3136;DHT22;1578;47.658;9.922;2023-08-17T15:40:08;27.60;10.30
3136;DHT22;1578;47.658;9.922;2023-08-17T15:42:34;27.20;11.10
3136;DHT22;1578;47.658;9.922;2023-08-17T15:44:59;26.80;9.60
3136;DHT22;1578;47.658;9.922;2023-08-17T15:47:25;26.40;6.50
3136;DHT22;1578;47.658;9.922;2023-08-17T15:49:51;25.90;6.30
3136;DHT22;1578;47.658;9.922;2023-08-17T15:52:17;25.50;8.70
3136;DHT22;1578;47.658;9.922;2023-08-17T15:54:44;25.30;6.50
3136;DHT22;1578;47.658;9.922;2023-08-17T15:57:10;25.10;8.40
3136;DHT22;1578;47.658;9.922;2023-08-17T15:59:36;24.70;9.00
3136;DHT22;1578;47.658;9.922;2023-08-17T16:02:04;24.40;11.70
3136;DHT22;1578;47.658;9.922;2023-08-17T16:04:30;24.30;10.10
3136;DHT22;1578;47.658;9.922;2023-08-17T16:06:55;24.00;13.00
3136;DHT22;1578;47.658;9.922;2023-08-17T16:09:21;23.90;13.30
3136;DHT22;1578;47.658;9.922;2023-08-17T16:11:47;23.80;14.50
3136;DHT22;1578;47.658;9.922;2023-08-17T16:14:13;23.50;17.30
3136;DHT22;1578;47.658;9.922;2023-08-17T16:16:38;23.50;18.50